createdAt,value
2018-12-15T00:02:12.395Z,97122.36
2018-12-15T00:04:44.317Z,97124.19
2018-12-15T00:07:21.900Z,97122.75
2018-12-15T00:09:51.841Z,97132.12
2018-12-15T00:12:21.771Z,97131.75
2018-12-15T00:14:51.752Z,97135.78
2018-12-15T00:17:21.684Z,97138.28
2018-12-15T00:19:51.804Z,97132.63
2018-12-15T00:22:21.738Z,97136.56
2018-12-15T00:24:51.709Z,97134.23
2018-12-15T00:27:21.640Z,97138.47
2018-12-15T00:29:51.921Z,97130.34
2018-12-15T00:32:21.857Z,97135.16
2018-12-15T00:34:51.831Z,97135.11
2018-12-15T00:37:21.876Z,97140.88
2018-12-15T00:39:51.800Z,97134.85
2018-12-15T00:42:35.265Z,97143.29
2018-12-15T00:45:05.892Z,97143.02
2018-12-15T00:47:35.828Z,97146.91
2018-12-15T00:50:05.898Z,97147.38
2018-12-15T00:52:35.967Z,97144.19
2018-12-15T00:55:06.251Z,97151.34
2018-12-15T00:57:36.184Z,97153.99
2018-12-15T01:00:06.441Z,97158.27
2018-12-15T01:02:36.404Z,97162.22
2018-12-15T01:05:06.752Z,97162.81
2018-12-15T01:07:39.880Z,97161.19
2018-12-15T01:10:09.813Z,97169.69
2018-12-15T01:12:40.004Z,97170.80
2018-12-15T01:15:10.004Z,97172.47
2018-12-15T01:17:39.956Z,97170.70
2018-12-15T01:20:09.884Z,97170.38
2018-12-15T01:22:39.792Z,97168.05
2018-12-15T01:25:09.853Z,97167.14
2018-12-15T01:27:39.920Z,97168.94
2018-12-15T01:30:09.920Z,97176.73
2018-12-15T01:32:40.021Z,97184.21
2018-12-15T01:35:10.017Z,97186.58
2018-12-15T01:37:40.020Z,97184.75
2018-12-15T01:40:10.175Z,97183.00
2018-12-15T01:42:40.180Z,97177.48
2018-12-15T01:45:10.265Z,97184.11
2018-12-15T01:47:40.316Z,97183.46
2018-12-15T01:50:10.323Z,97184.02
2018-12-15T01:52:40.308Z,97188.37
2018-12-15T01:55:10.230Z,97188.98
2018-12-15T01:57:40.208Z,97191.30
2018-12-15T02:00:10.356Z,97193.06
2018-12-15T02:02:41.581Z,97198.64
2018-12-15T02:05:11.504Z,97195.80
2018-12-15T02:07:41.413Z,97196.17
2018-12-15T02:10:11.528Z,97189.81
2018-12-15T02:12:41.516Z,97189.08
2018-12-15T02:15:11.498Z,97191.62
2018-12-15T02:17:41.436Z,97197.34
2018-12-15T02:20:11.644Z,97199.94
2018-12-15T02:22:41.646Z,97197.94
2018-12-15T02:25:11.569Z,97194.74
2018-12-15T02:27:41.616Z,97197.75
2018-12-15T02:30:12.921Z,97201.73
2018-12-15T02:32:42.930Z,97204.80
2018-12-15T02:35:12.984Z,97203.32
2018-12-15T02:37:42.918Z,97208.75
2018-12-15T02:40:13.965Z,97203.50
2018-12-15T02:42:44.000Z,97209.67
2018-12-15T02:45:14.021Z,97216.78
2018-12-15T02:47:43.934Z,97213.66
2018-12-15T02:50:13.933Z,97216.84
2018-12-15T02:52:43.852Z,97218.14
2018-12-15T02:55:13.858Z,97221.83
2018-12-15T02:57:43.812Z,97219.03
2018-12-15T03:00:13.749Z,97218.59
2018-12-15T03:02:44.619Z,97219.34
2018-12-15T03:05:14.552Z,97225.27
2018-12-15T03:07:44.648Z,97218.66
2018-12-15T03:10:14.721Z,97217.52
2018-12-15T03:12:44.778Z,97217.70
2018-12-15T03:15:14.748Z,97224.06
2018-12-15T03:17:48.901Z,97224.48
2018-12-15T03:20:16.549Z,97226.04
2018-12-15T03:22:46.514Z,97224.93
2018-12-15T03:25:17.484Z,97222.70
2018-12-15T03:27:47.394Z,97226.84
2018-12-15T03:30:17.396Z,97225.68
2018-12-15T03:32:47.318Z,97228.69
2018-12-15T03:35:17.377Z,97226.31
2018-12-15T03:37:47.293Z,97222.47
2018-12-15T03:40:17.200Z,97227.39
2018-12-15T03:42:47.193Z,97226.28
2018-12-15T03:45:19.085Z,97225.78
2018-12-15T03:47:55.959Z,97231.42
2018-12-15T03:50:20.931Z,97230.73
2018-12-15T03:52:50.917Z,97233.52
2018-12-15T03:55:20.991Z,97230.78
2018-12-15T03:57:51.036Z,97238.98
2018-12-15T04:00:21.020Z,97239.55
2018-12-15T04:02:50.967Z,97236.48
2018-12-15T04:05:20.878Z,97235.69
2018-12-15T04:07:50.824Z,97243.36
2018-12-15T04:10:20.727Z,97245.31
2018-12-15T04:12:50.790Z,97246.28
2018-12-15T04:15:20.776Z,97253.36
2018-12-15T04:17:50.706Z,97243.34
2018-12-15T04:20:20.746Z,97248.13
2018-12-15T04:22:50.741Z,97249.50
2018-12-15T04:25:20.731Z,97244.64
2018-12-15T04:27:50.654Z,97239.88
2018-12-15T04:30:20.570Z,97238.61
2018-12-15T04:32:50.504Z,97237.27
2018-12-15T04:35:20.491Z,97238.70
2018-12-15T04:37:52.493Z,97235.45
2018-12-15T04:40:22.794Z,97230.00
2018-12-15T04:42:52.708Z,97228.63
2018-12-15T04:45:22.620Z,97224.53
2018-12-15T04:47:52.564Z,97227.02
2018-12-15T04:50:22.483Z,97221.72
2018-12-15T04:52:52.405Z,97224.81
2018-12-15T04:55:22.312Z,97229.37
2018-12-15T04:57:52.239Z,97222.27
2018-12-15T05:00:22.297Z,97223.56
2018-12-15T05:02:52.253Z,97226.69
2018-12-15T05:05:22.353Z,97227.73
2018-12-15T05:07:52.271Z,97226.37
2018-12-15T05:10:22.172Z,97221.41
2018-12-15T05:12:52.135Z,97218.48
2018-12-15T05:15:22.044Z,97223.22
2018-12-15T05:17:51.969Z,97223.43
2018-12-15T05:20:21.948Z,97220.28
2018-12-15T05:22:51.884Z,97227.73
2018-12-15T05:25:21.841Z,97228.67
2018-12-15T05:27:51.904Z,97218.28
2018-12-15T05:30:21.816Z,97220.00
2018-12-15T05:32:51.809Z,97216.19
2018-12-15T05:35:21.837Z,97220.33
2018-12-15T05:37:51.934Z,97222.18
2018-12-15T05:40:21.878Z,97216.30
2018-12-15T05:42:51.872Z,97218.48
2018-12-15T05:45:21.795Z,97217.41
2018-12-15T05:47:51.754Z,97219.42
2018-12-15T05:50:21.765Z,97219.56
2018-12-15T05:52:51.695Z,97219.90
2018-12-15T05:55:21.609Z,97223.84
2018-12-15T05:57:51.715Z,97220.16
2018-12-15T06:00:21.681Z,97222.08
2018-12-15T06:02:51.864Z,97222.50
2018-12-15T06:05:21.929Z,97226.33
2018-12-15T06:07:52.204Z,97224.63
2018-12-15T06:10:22.125Z,97230.20
2018-12-15T06:12:52.369Z,97227.56
2018-12-15T06:15:22.504Z,97228.17
2018-12-15T06:17:52.500Z,97235.36
2018-12-15T06:20:22.421Z,97231.98
2018-12-15T06:22:52.340Z,97233.23
2018-12-15T06:25:22.244Z,97230.77
2018-12-15T06:27:52.166Z,97226.22
2018-12-15T06:30:22.140Z,97225.72
2018-12-15T06:32:52.058Z,97230.80
2018-12-15T06:35:22.132Z,97230.34
2018-12-15T06:37:52.385Z,97228.43
2018-12-15T06:40:22.447Z,97234.09
2018-12-15T06:42:54.688Z,97232.84
2018-12-15T06:45:24.707Z,97228.57
2018-12-15T06:47:54.666Z,97233.16
2018-12-15T06:50:24.672Z,97231.09
2018-12-15T06:52:54.664Z,97231.25
2018-12-15T06:55:24.645Z,97231.03
2018-12-15T06:57:54.578Z,97237.61
2018-12-15T07:00:24.721Z,97236.17
2018-12-15T07:02:54.737Z,97236.55
2018-12-15T07:05:24.758Z,97235.48
2018-12-15T07:07:54.725Z,97237.41
2018-12-15T07:10:24.749Z,97240.61
2018-12-15T07:12:54.704Z,97240.50
2018-12-15T07:18:23.285Z,97238.91
2018-12-15T07:20:53.248Z,97240.25
2018-12-15T07:23:23.251Z,97234.92
2018-12-15T07:25:53.341Z,97238.52
2018-12-15T07:28:23.280Z,97237.08
2018-12-15T07:30:53.306Z,97236.20
2018-12-15T07:33:23.226Z,97241.13
2018-12-15T07:35:53.226Z,97243.63
2018-12-15T07:38:23.284Z,97245.57
2018-12-15T07:40:53.205Z,97244.97
2018-12-15T07:43:23.116Z,97246.86
2018-12-15T07:45:53.102Z,97244.17
2018-12-15T07:48:23.097Z,97253.78
2018-12-15T07:50:53.016Z,97251.38
2018-12-15T07:53:23.040Z,97252.12
2018-12-15T07:55:52.944Z,97250.22
2018-12-15T07:58:22.865Z,97255.27
2018-12-15T08:00:52.875Z,97248.73
2018-12-15T08:03:22.802Z,97257.64
2018-12-15T08:05:53.796Z,97258.15
2018-12-15T08:08:23.898Z,97257.34
2018-12-15T08:10:59.405Z,97254.80
2018-12-15T08:16:26.717Z,97263.06
2018-12-15T08:18:58.150Z,97260.14
2018-12-15T08:21:28.355Z,97263.34
2018-12-15T08:23:58.288Z,97265.99
2018-12-15T08:26:28.433Z,97263.34
2018-12-15T08:28:58.348Z,97265.61
2018-12-15T08:31:28.281Z,97268.45
2018-12-15T08:33:58.213Z,97264.97
2018-12-15T08:36:28.208Z,97266.92
2018-12-15T08:38:58.137Z,97263.08
2018-12-15T08:41:28.056Z,97262.57
2018-12-15T08:43:57.988Z,97263.20
2018-12-15T08:46:28.145Z,97274.42
2018-12-15T08:49:04.493Z,97267.55
2018-12-15T08:51:30.409Z,97265.86
2018-12-15T08:54:00.316Z,97266.97
2018-12-15T08:56:30.246Z,97267.48
2018-12-15T08:59:00.162Z,97260.42
2018-12-15T09:01:30.060Z,97265.72
2018-12-15T09:04:01.028Z,97261.83
2018-12-15T09:06:32.157Z,97272.95
2018-12-15T09:09:02.347Z,97273.00
2018-12-15T09:11:32.503Z,97271.95
2018-12-15T09:14:02.708Z,97269.62
2018-12-15T09:16:32.735Z,97270.59
2018-12-15T09:19:02.642Z,97273.30
2018-12-15T09:21:32.560Z,97275.98
2018-12-15T09:24:02.471Z,97276.86
2018-12-15T09:26:33.542Z,97275.75
2018-12-15T09:29:03.645Z,97276.91
2018-12-15T09:31:36.452Z,97273.80
2018-12-15T09:34:06.441Z,97272.13
2018-12-15T09:36:36.353Z,97264.95
2018-12-15T09:39:07.860Z,97263.18
2018-12-15T09:41:37.762Z,97268.97
2018-12-15T09:44:07.781Z,97271.75
2018-12-15T09:46:37.908Z,97267.50
2018-12-15T09:49:07.933Z,97270.88
2018-12-15T09:51:37.953Z,97265.05
2018-12-15T09:54:07.889Z,97264.76
2018-12-15T09:56:37.793Z,97266.32
2018-12-15T09:59:07.867Z,97263.39
2018-12-15T10:01:37.842Z,97255.23
2018-12-15T10:04:07.848Z,97266.32
2018-12-15T10:06:37.753Z,97265.00
2018-12-15T10:09:08.005Z,97260.16
2018-12-15T10:11:38.979Z,97264.83
2018-12-15T10:14:08.892Z,97253.42
2018-12-15T10:16:38.790Z,97254.80
2018-12-15T10:19:09.838Z,97250.03
2018-12-15T10:21:39.965Z,97255.05
2018-12-15T10:24:10.030Z,97253.84
2018-12-15T10:26:40.018Z,97243.83
2018-12-15T10:32:11.897Z,97242.95
2018-12-15T10:34:41.873Z,97237.23
2018-12-15T10:37:11.952Z,97239.37
2018-12-15T10:39:41.895Z,97242.77
2018-12-15T10:42:11.814Z,97239.55
2018-12-15T10:44:41.761Z,97236.13
2018-12-15T10:47:11.681Z,97234.69
2018-12-15T10:49:43.695Z,97240.48
2018-12-15T10:52:13.822Z,97234.73
2018-12-15T10:54:43.825Z,97231.07
2018-12-15T10:57:13.748Z,97233.58
2018-12-15T10:59:43.857Z,97232.97
2018-12-15T11:02:13.836Z,97234.45
2018-12-15T11:04:43.750Z,97225.36
2018-12-15T11:07:13.654Z,97224.84
2018-12-15T11:09:44.628Z,97218.86
2018-12-15T11:12:14.577Z,97217.61
2018-12-15T11:14:44.515Z,97212.03
2018-12-15T11:17:14.446Z,97200.95
2018-12-15T11:19:44.360Z,97204.43
2018-12-15T11:22:14.426Z,97208.09
2018-12-15T11:24:44.362Z,97201.28
2018-12-15T11:27:14.384Z,97209.44
2018-12-15T11:29:44.411Z,97213.52
2018-12-15T11:32:14.485Z,97212.03
2018-12-15T11:34:44.462Z,97210.97
2018-12-15T11:37:14.371Z,97204.02
2018-12-15T11:39:44.312Z,97189.67
2018-12-15T11:42:14.395Z,97196.58
2018-12-15T11:44:44.513Z,97189.80
2018-12-15T11:47:14.513Z,97190.36
2018-12-15T11:49:44.636Z,97179.64
2018-12-15T11:52:14.570Z,97170.08
2018-12-15T11:54:44.606Z,97167.76
2018-12-15T11:57:14.525Z,97166.04
2018-12-15T11:59:44.709Z,97160.27
2018-12-15T12:02:14.830Z,97152.90
2018-12-15T12:04:44.785Z,97156.84
2018-12-15T12:07:14.774Z,97149.83
2018-12-15T12:09:44.713Z,97142.79
2018-12-15T12:12:14.892Z,97129.55
2018-12-15T12:14:45.117Z,97134.89
2018-12-15T12:17:15.021Z,97135.57
2018-12-15T12:19:50.121Z,97127.73
2018-12-15T12:22:18.051Z,97133.89
2018-12-15T12:24:47.982Z,97135.64
2018-12-15T12:27:19.852Z,97135.14
2018-12-15T12:29:49.861Z,97138.81
2018-12-15T12:32:19.900Z,97145.13
2018-12-15T12:34:51.101Z,97139.97
2018-12-15T12:37:21.014Z,97140.30
2018-12-15T12:39:51.055Z,97137.73
2018-12-15T12:42:20.968Z,97136.22
2018-12-15T12:44:50.970Z,97139.58
2018-12-15T12:47:20.916Z,97136.58
2018-12-15T12:49:56.680Z,97131.89
2018-12-15T12:52:22.905Z,97134.78
2018-12-15T12:54:52.900Z,97139.22
2018-12-15T12:57:22.825Z,97138.42
2018-12-15T12:59:52.757Z,97129.98
2018-12-15T13:02:22.692Z,97128.81
2018-12-15T13:04:52.688Z,97126.80
2018-12-15T13:07:22.673Z,97133.44
2018-12-15T13:09:52.667Z,97128.89
2018-12-15T13:12:22.762Z,97125.35
2018-12-15T13:14:52.883Z,97124.59
2018-12-15T13:17:22.889Z,97125.13
2018-12-15T13:19:52.832Z,97125.50
2018-12-15T13:22:22.815Z,97118.56
2018-12-15T13:24:52.818Z,97112.68
2018-12-15T13:27:22.882Z,97116.00
2018-12-15T13:29:52.820Z,97115.36
2018-12-15T13:32:22.806Z,97107.98
2018-12-15T13:34:52.854Z,97103.08
2018-12-15T13:37:22.885Z,97115.78
2018-12-15T13:39:53.057Z,97114.52
2018-12-15T13:42:23.119Z,97115.42
2018-12-15T13:44:53.132Z,97124.20
2018-12-15T13:47:23.304Z,97125.31
2018-12-15T13:49:53.253Z,97125.39
2018-12-15T13:52:23.158Z,97121.23
2018-12-15T13:54:53.169Z,97124.34
2018-12-15T13:57:23.079Z,97129.94
2018-12-15T13:59:53.065Z,97124.78
2018-12-15T14:02:22.966Z,97121.74
2018-12-15T14:04:52.985Z,97125.42
2018-12-15T14:07:22.892Z,97121.96
2018-12-15T14:09:52.920Z,97119.33
2018-12-15T14:12:22.881Z,97128.75
2018-12-15T14:14:52.889Z,97133.98
2018-12-15T14:17:22.802Z,97132.83
2018-12-15T14:19:52.726Z,97133.41
2018-12-15T14:22:22.666Z,97129.50
2018-12-15T14:24:52.725Z,97129.94
2018-12-15T14:27:22.686Z,97131.02
2018-12-15T14:29:52.753Z,97133.63
2018-12-15T14:32:22.675Z,97129.87
2018-12-15T14:34:52.783Z,97128.09
2018-12-15T14:37:22.861Z,97124.05
2018-12-15T14:39:52.796Z,97126.66
2018-12-15T14:42:22.833Z,97120.98
2018-12-15T14:44:53.929Z,97125.86
2018-12-15T14:47:24.056Z,97124.95
2018-12-15T14:49:54.061Z,97121.92
2018-12-15T14:52:24.094Z,97122.43
2018-12-15T14:54:54.095Z,97121.81
2018-12-15T14:57:25.678Z,97121.23
2018-12-15T14:59:55.598Z,97117.66
2018-12-15T15:02:25.717Z,97118.56
2018-12-15T15:04:55.812Z,97113.66
2018-12-15T15:07:25.840Z,97100.27
2018-12-15T15:09:55.869Z,97099.80
2018-12-15T15:12:26.100Z,97099.54
2018-12-15T15:14:56.081Z,97106.59
2018-12-15T15:17:26.024Z,97102.69
2018-12-15T15:19:56.013Z,97103.22
2018-12-15T15:22:26.345Z,97092.64
2018-12-15T15:24:56.256Z,97103.08
2018-12-15T15:27:26.260Z,97096.16
2018-12-15T15:29:56.311Z,97095.57
2018-12-15T15:32:26.919Z,97100.02
2018-12-15T15:34:56.842Z,97094.34
2018-12-15T15:37:27.880Z,97088.61
2018-12-15T15:39:57.815Z,97096.36
2018-12-15T15:42:27.789Z,97085.70
2018-12-15T15:44:57.706Z,97083.29
2018-12-15T15:47:27.757Z,97080.09
2018-12-15T15:49:57.722Z,97077.31
2018-12-15T15:52:27.964Z,97078.53
2018-12-15T15:54:57.876Z,97073.80
2018-12-15T15:57:27.825Z,97072.11
2018-12-15T15:59:57.732Z,97075.11
2018-12-15T16:02:27.948Z,97067.02
2018-12-15T16:04:59.396Z,97062.73
2018-12-15T16:07:29.359Z,97058.42
2018-12-15T16:09:59.444Z,97054.21
2018-12-15T16:12:29.393Z,97047.83
2018-12-15T16:14:59.473Z,97052.44
2018-12-15T16:17:29.501Z,97042.05
2018-12-15T16:19:59.510Z,97040.75
2018-12-15T16:22:29.760Z,97045.27
2018-12-15T16:24:59.755Z,97046.45
2018-12-15T16:27:29.692Z,97039.91
2018-12-15T16:29:59.677Z,97037.58
2018-12-15T16:32:29.725Z,97039.48
2018-12-15T16:34:59.749Z,97036.78
2018-12-15T16:37:29.772Z,97041.15
2018-12-15T16:39:59.757Z,97035.33
2018-12-15T16:42:30.101Z,97027.00
2018-12-15T16:45:00.089Z,97022.89
2018-12-15T16:47:30.137Z,97021.84
2018-12-15T16:50:00.074Z,97024.76
2018-12-15T16:52:30.336Z,97020.75
2018-12-15T16:55:00.769Z,97025.55
2018-12-15T16:57:30.760Z,97029.34
2018-12-15T17:00:00.675Z,97025.84
2018-12-15T17:02:30.684Z,97025.38
2018-12-15T17:05:00.602Z,97026.50
2018-12-15T17:07:30.865Z,97018.44
2018-12-15T17:10:00.804Z,97018.52
2018-12-15T17:12:30.723Z,97009.39
2018-12-15T17:15:00.801Z,97005.31
2018-12-15T17:17:31.783Z,97012.03
2018-12-15T17:20:01.841Z,97010.16
2018-12-15T17:22:31.844Z,97006.77
2018-12-15T17:25:02.878Z,97003.05
2018-12-15T17:27:33.964Z,97007.80
2018-12-15T17:30:05.540Z,96995.58
2018-12-15T17:32:35.575Z,96999.15
2018-12-15T17:35:06.566Z,96993.23
2018-12-15T17:37:36.547Z,96993.02
2018-12-15T17:40:08.945Z,96994.14
2018-12-15T17:42:40.017Z,96999.73
2018-12-15T17:45:10.176Z,96992.66
2018-12-15T17:47:40.110Z,96986.09
2018-12-15T17:50:11.420Z,96985.59
2018-12-15T17:52:43.378Z,96981.66
2018-12-15T17:55:13.577Z,96980.25
2018-12-15T17:57:43.517Z,96976.79
2018-12-15T18:00:14.500Z,96978.27
2018-12-15T18:02:44.508Z,96971.23
2018-12-15T18:05:14.584Z,96967.02
2018-12-15T18:07:44.576Z,96962.65
2018-12-15T18:10:14.579Z,96957.12
2018-12-15T18:12:44.522Z,96962.47
2018-12-15T18:15:14.532Z,96965.65
2018-12-15T18:17:44.458Z,96953.56
2018-12-15T18:20:14.688Z,96948.77
2018-12-15T18:22:44.829Z,96945.48
2018-12-15T18:25:14.886Z,96935.53
2018-12-15T18:27:44.882Z,96932.47
2018-12-15T18:30:14.861Z,96928.86
2018-12-15T18:32:44.883Z,96927.27
2018-12-15T18:35:15.422Z,96923.80
2018-12-15T18:37:45.351Z,96921.64
2018-12-15T18:40:15.392Z,96905.67
2018-12-15T18:42:45.447Z,96905.09
2018-12-15T18:45:15.517Z,96905.71
2018-12-15T18:47:45.536Z,96899.58
2018-12-15T18:50:15.516Z,96899.45
2018-12-15T18:52:45.544Z,96897.34
2018-12-15T18:55:15.520Z,96898.10
2018-12-15T18:57:45.812Z,96897.20
2018-12-15T19:00:16.014Z,96897.63
2018-12-15T19:02:46.020Z,96888.83
2018-12-15T19:05:16.028Z,96878.77
2018-12-15T19:07:47.279Z,96878.83
2018-12-15T19:10:17.194Z,96873.91
2018-12-15T19:12:47.304Z,96866.85
2018-12-15T19:15:17.383Z,96875.41
2018-12-15T19:17:47.444Z,96871.75
2018-12-15T19:20:17.625Z,96859.86
2018-12-15T19:22:47.601Z,96854.37
2018-12-15T19:25:18.153Z,96853.66
2018-12-15T19:27:48.133Z,96841.27
2018-12-15T19:30:18.133Z,96840.00
2018-12-15T19:32:48.143Z,96839.09
2018-12-15T19:35:18.279Z,96833.95
2018-12-15T19:37:48.204Z,96838.35
2018-12-15T19:40:18.610Z,96832.72
2018-12-15T19:42:48.639Z,96828.73
2018-12-15T19:45:18.755Z,96817.50
2018-12-15T19:47:48.932Z,96820.20
2018-12-15T19:50:18.956Z,96814.34
2018-12-15T19:52:49.077Z,96812.16
2018-12-15T19:55:19.321Z,96807.97
2018-12-15T19:57:49.288Z,96806.94
2018-12-15T20:00:19.417Z,96801.25
2018-12-15T20:02:49.577Z,96793.66
2018-12-15T20:05:19.584Z,96792.61
2018-12-15T20:07:49.704Z,96782.55
2018-12-15T20:10:19.955Z,96789.69
2018-12-15T20:12:49.894Z,96791.23
2018-12-15T20:15:19.927Z,96782.55
2018-12-15T20:17:49.878Z,96788.56
2018-12-15T20:20:19.921Z,96786.00
2018-12-15T20:22:49.877Z,96780.78
2018-12-15T20:25:19.906Z,96783.91
2018-12-15T20:27:49.961Z,96771.48
2018-12-15T20:30:25.724Z,96771.92
2018-12-15T20:32:55.684Z,96760.22
2018-12-15T20:35:25.632Z,96754.83
2018-12-15T20:37:55.590Z,96744.27
2018-12-15T20:40:25.493Z,96746.01
2018-12-15T20:42:55.484Z,96742.72
2018-12-15T20:45:25.641Z,96743.57
2018-12-15T20:47:55.649Z,96741.20
2018-12-15T20:50:26.391Z,96741.61
2018-12-15T20:52:56.420Z,96736.36
2018-12-15T20:55:26.384Z,96734.27
2018-12-15T20:57:56.345Z,96736.18
2018-12-15T21:00:26.343Z,96735.89
2018-12-15T21:02:56.397Z,96729.59
2018-12-15T21:05:26.350Z,96733.84
2018-12-15T21:07:56.321Z,96739.92
2018-12-15T21:10:26.233Z,96727.22
2018-12-15T21:12:56.258Z,96715.05
2018-12-15T21:21:00.752Z,96694.74
2018-12-15T21:23:30.840Z,96697.02
2018-12-15T21:26:00.945Z,96693.23
2018-12-15T21:28:30.944Z,96692.91
2018-12-15T21:31:00.966Z,96693.95
2018-12-15T21:33:30.992Z,96682.79
2018-12-15T21:36:00.997Z,96671.85
2018-12-15T21:38:31.000Z,96666.39
2018-12-15T21:41:01.045Z,96663.69
2018-12-15T21:43:31.009Z,96662.36
2018-12-15T21:46:02.072Z,96665.34
2018-12-15T21:48:32.021Z,96665.48
2018-12-15T21:51:02.004Z,96666.34
2018-12-15T21:53:31.952Z,96649.94
2018-12-15T21:56:04.296Z,96644.86
2018-12-15T21:58:34.322Z,96634.00
2018-12-15T22:01:04.245Z,96646.84
2018-12-15T22:03:34.208Z,96640.86
2018-12-15T22:06:04.241Z,96638.59
2018-12-15T22:08:34.204Z,96627.73
2018-12-15T22:11:04.225Z,96637.27
2018-12-15T22:13:34.164Z,96637.53
2018-12-15T22:16:04.100Z,96634.06
2018-12-15T22:18:34.102Z,96628.84
2018-12-15T22:21:04.346Z,96628.78
2018-12-15T22:23:34.277Z,96622.19
2018-12-15T22:26:04.349Z,96615.56
2018-12-15T22:28:34.325Z,96606.99
2018-12-15T22:31:04.445Z,96606.79
2018-12-15T22:33:34.390Z,96602.99
2018-12-15T22:36:04.304Z,96596.42
2018-12-15T22:38:34.316Z,96590.68
2018-12-15T22:41:04.362Z,96579.52
2018-12-15T22:43:34.326Z,96571.24
2018-12-15T22:46:04.516Z,96563.64
2018-12-15T22:48:34.474Z,96567.11
2018-12-15T22:51:04.501Z,96551.66
2018-12-15T22:53:34.436Z,96546.50
2018-12-15T22:56:04.529Z,96537.27
2018-12-15T22:58:34.517Z,96533.19
2018-12-15T23:01:09.922Z,96527.53
2018-12-15T23:03:41.882Z,96514.39
2018-12-15T23:06:11.872Z,96521.05
2018-12-15T23:08:41.888Z,96512.61
2018-12-15T23:11:11.829Z,96502.60
2018-12-15T23:13:41.785Z,96500.36
2018-12-15T23:16:11.888Z,96493.47
2018-12-15T23:18:41.839Z,96485.44
2018-12-15T23:21:12.803Z,96488.00
2018-12-15T23:23:42.745Z,96474.30
2018-12-15T23:26:12.797Z,96470.53
2018-12-15T23:28:42.749Z,96466.65
2018-12-15T23:31:12.680Z,96465.33
2018-12-15T23:33:42.627Z,96467.44
2018-12-15T23:36:12.618Z,96466.97
2018-12-15T23:38:42.627Z,96469.23
2018-12-15T23:41:12.680Z,96467.92
2018-12-15T23:43:42.622Z,96462.11
2018-12-15T23:46:12.806Z,96453.31
2018-12-15T23:48:42.829Z,96454.02
2018-12-15T23:51:12.760Z,96440.11
2018-12-15T23:53:42.700Z,96444.70
2018-12-15T23:56:12.706Z,96442.05
2018-12-15T23:58:42.616Z,96439.92
